Time;durP1;ratioP1;P1;durP2;ratioP2;P2;SDS_P1;SDS_P2;PMS_P1;PMS_P2;Temp;Humidity;BMP_temperature;BMP_pressure;BME280_temperature;BME280_humidity;BME280_pressure;Samples;Min_cycle;Max_cycle;Signal;HPM_P1;HPM_P2
2023/10/04 00:00:59;;;;;;;3.38;1.40;;;;;;;;;;6137433;23;20181;-93
2023/10/04 00:04:06;;;;;;;3.97;1.70;;;;;;;;;;6138302;23;20197;-94
2023/10/04 00:07:11;;;;;;;3.03;1.30;;;;;;;;;;6139617;23;20633;-92
2023/10/04 00:10:17;;;;;;;3.13;1.35;;;;;;;;;;6139644;23;20245;-91
2023/10/04 00:13:22;;;;;;;3.53;1.50;;;;;;;;;;6140159;23;20177;-93
2023/10/04 00:16:27;;;;;;;3.38;1.40;;;;;;;;;;6138570;23;20193;-94
2023/10/04 00:19:34;;;;;;;3.45;1.35;;;;;;;;;;6139725;23;20247;-89
2023/10/04 00:22:40;;;;;;;3.15;1.30;;;;;;;;;;6140356;23;20553;-92
2023/10/04 00:25:45;;;;;;;2.40;1.10;;;;;;;;;;6139201;23;20266;-91
2023/10/04 00:28:50;;;;;;;9.07;1.65;;;;;;;;;;6141354;23;20165;-92
2023/10/04 00:31:58;;;;;;;5.40;1.50;;;;;;;;;;6140624;23;20248;-93
2023/10/04 00:35:05;;;;;;;4.78;1.40;;;;;;;;;;6139944;23;20164;-91
2023/10/04 00:38:14;;;;;;;2.40;1.25;;;;;;;;;;6140400;23;20177;-93
2023/10/04 00:41:20;;;;;;;3.08;1.52;;;;;;;;;;6140531;23;20262;-92
2023/10/04 00:44:26;;;;;;;3.03;1.38;;;;;;;;;;6140919;23;20193;-91
2023/10/04 00:47:32;;;;;;;3.78;1.27;;;;;;;;;;6140469;23;20173;-91
2023/10/04 00:50:40;;;;;;;6.82;1.60;;;;;;;;;;6140278;23;20156;-92
2023/10/04 00:53:47;;;;;;;3.13;1.40;;;;;;;;;;6139499;23;20222;-92
2023/10/04 00:56:53;;;;;;;3.65;1.30;;;;;;;;;;6139909;23;20169;-92
2023/10/04 00:59:58;;;;;;;3.22;1.60;;;;;;;;;;6141483;23;20209;-91
2023/10/04 01:03:04;;;;;;;3.15;1.55;;;;;;;;;;6124879;23;20169;-91
2023/10/04 01:06:14;;;;;;;3.17;1.40;;;;;;;;;;6142686;23;20313;-93
2023/10/04 01:09:22;;;;;;;6.28;1.98;;;;;;;;;;6143234;23;20173;-91
2023/10/04 01:12:28;;;;;;;5.68;1.92;;;;;;;;;;6141878;23;20169;-93
2023/10/04 01:15:33;;;;;;;5.32;1.60;;;;;;;;;;6122635;23;20172;-92
2023/10/04 01:18:40;;;;;;;3.28;1.50;;;;;;;;;;6139836;23;20179;-91
2023/10/04 01:21:47;;;;;;;5.13;1.50;;;;;;;;;;6141268;23;20169;-93
2023/10/04 01:24:54;;;;;;;5.00;1.80;;;;;;;;;;6138976;23;20522;-90
2023/10/04 01:28:07;;;;;;;4.68;1.75;;;;;;;;;;6138604;23;20169;-93
2023/10/04 01:31:12;;;;;;;3.33;1.63;;;;;;;;;;6139585;23;20165;-92
2023/10/04 01:34:18;;;;;;;3.63;1.70;;;;;;;;;;6139801;23;20181;-93
2023/10/04 01:37:23;;;;;;;6.22;1.58;;;;;;;;;;6140267;23;20173;-94
2023/10/04 01:40:34;;;;;;;2.78;1.38;;;;;;;;;;6139629;23;20170;-92
2023/10/04 01:43:39;;;;;;;3.42;1.48;;;;;;;;;;6139426;23;20177;-94
2023/10/04 01:46:45;;;;;;;3.13;1.50;;;;;;;;;;6141703;23;20189;-92
2023/10/04 01:49:50;;;;;;;5.00;1.50;;;;;;;;;;6141799;23;20208;-93
2023/10/04 01:52:56;;;;;;;3.40;1.25;;;;;;;;;;6141953;23;20225;-93
2023/10/04 01:56:05;;;;;;;4.93;1.40;;;;;;;;;;6140574;23;20169;-91
2023/10/04 01:59:13;;;;;;;3.13;1.38;;;;;;;;;;6139424;23;20153;-90
2023/10/04 02:02:18;;;;;;;3.38;1.60;;;;;;;;;;6140487;23;20220;-93
2023/10/04 02:05:31;;;;;;;4.25;1.50;;;;;;;;;;6140465;23;20251;-92
2023/10/04 02:08:37;;;;;;;5.30;1.75;;;;;;;;;;6140125;23;20161;-90
2023/10/04 02:11:44;;;;;;;3.13;1.52;;;;;;;;;;6139601;23;20590;-93
2023/10/04 02:14:53;;;;;;;6.22;1.52;;;;;;;;;;6139978;23;20165;-88
2023/10/04 02:18:02;;;;;;;3.80;1.60;;;;;;;;;;6142046;23;20169;-92
2023/10/04 02:21:09;;;;;;;5.25;1.67;;;;;;;;;;6124870;23;20168;-92
2023/10/04 02:24:15;;;;;;;6.15;1.70;;;;;;;;;;6141970;23;20169;-90
2023/10/04 02:27:22;;;;;;;6.10;1.70;;;;;;;;;;6125024;23;20230;-91
2023/10/04 02:30:28;;;;;;;3.78;1.60;;;;;;;;;;6141203;23;20190;-89
2023/10/04 02:33:34;;;;;;;4.15;1.42;;;;;;;;;;6142088;23;20170;-92
2023/10/04 02:36:43;;;;;;;4.30;1.58;;;;;;;;;;6125650;23;20172;-92
2023/10/04 02:39:50;;;;;;;5.45;1.60;;;;;;;;;;6142536;23;20186;-93
2023/10/04 02:42:58;;;;;;;4.53;1.70;;;;;;;;;;6143078;23;20165;-90
2023/10/04 02:46:04;;;;;;;5.93;2.20;;;;;;;;;;6125667;23;20189;-91
2023/10/04 02:49:10;;;;;;;4.43;1.55;;;;;;;;;;6141572;23;20169;-91
2023/10/04 02:52:16;;;;;;;5.30;1.73;;;;;;;;;;6142404;23;20641;-92
2023/10/04 02:55:22;;;;;;;3.53;1.77;;;;;;;;;;6141187;23;20177;-90
2023/10/04 02:58:30;;;;;;;4.68;1.60;;;;;;;;;;6141992;23;20256;-91
2023/10/04 03:01:36;;;;;;;5.07;1.60;;;;;;;;;;6123494;23;20496;-92
2023/10/04 03:04:43;;;;;;;7.13;1.75;;;;;;;;;;6142580;23;20193;-89
2023/10/04 03:07:50;;;;;;;6.85;1.65;;;;;;;;;;6142007;23;20169;-92
2023/10/04 03:10:56;;;;;;;7.65;1.65;;;;;;;;;;6142217;23;20173;-90
2023/10/04 03:14:06;;;;;;;5.50;1.92;;;;;;;;;;6142259;23;20560;-92
2023/10/04 03:17:15;;;;;;;5.00;1.77;;;;;;;;;;6142934;23;20176;-92
2023/10/04 03:20:28;;;;;;;3.28;1.50;;;;;;;;;;6143366;23;20217;-91
2023/10/04 03:23:35;;;;;;;4.35;1.80;;;;;;;;;;6141767;23;20277;-92
2023/10/04 03:26:44;;;;;;;3.03;1.48;;;;;;;;;;6127332;23;20181;-92
2023/10/04 03:29:53;;;;;;;6.28;2.08;;;;;;;;;;6125898;23;20214;-92
2023/10/04 03:32:58;;;;;;;3.08;1.58;;;;;;;;;;6143259;23;20169;-93
2023/10/04 03:36:08;;;;;;;3.80;2.00;;;;;;;;;;6126176;23;20216;-92
2023/10/04 03:39:14;;;;;;;5.38;1.98;;;;;;;;;;6142390;23;20202;-93
2023/10/04 03:42:26;;;;;;;4.00;1.92;;;;;;;;;;6142487;23;20174;-93
2023/10/04 03:45:34;;;;;;;7.38;2.40;;;;;;;;;;6143493;23;20192;-93
2023/10/04 03:48:41;;;;;;;6.00;2.15;;;;;;;;;;6144810;23;20226;-91
2023/10/04 03:51:53;;;;;;;2.97;1.75;;;;;;;;;;6145221;23;20190;-91
2023/10/04 03:54:59;;;;;;;9.27;2.25;;;;;;;;;;6144546;23;20173;-93
2023/10/04 03:58:06;;;;;;;6.25;1.90;;;;;;;;;;6143536;23;20213;-92
2023/10/04 04:01:14;;;;;;;4.28;1.80;;;;;;;;;;6144277;23;20168;-93
2023/10/04 04:04:20;;;;;;;4.25;2.15;;;;;;;;;;6144711;23;20181;-92
2023/10/04 04:07:26;;;;;;;6.57;2.55;;;;;;;;;;6145176;23;20149;-95
2023/10/04 04:10:32;;;;;;;9.70;2.35;;;;;;;;;;6145418;23;20240;-94
2023/10/04 04:13:37;;;;;;;7.38;2.60;;;;;;;;;;6145404;23;20166;-94
2023/10/04 04:16:46;;;;;;;4.22;2.13;;;;;;;;;;6128363;23;20172;-93
2023/10/04 04:19:53;;;;;;;6.78;2.55;;;;;;;;;;6127245;23;20190;-93
2023/10/04 04:22:59;;;;;;;4.05;2.20;;;;;;;;;;6144167;23;20231;-94
2023/10/04 04:26:07;;;;;;;5.38;2.50;;;;;;;;;;6144197;23;20196;-94
2023/10/04 04:29:15;;;;;;;3.67;2.13;;;;;;;;;;6142441;23;20173;-93
2023/10/04 04:32:26;;;;;;;8.20;2.35;;;;;;;;;;6125734;23;20228;-93
2023/10/04 04:35:47;;;;;;;7.63;2.40;;;;;;;;;;6126783;23;20161;-90
2023/10/04 04:38:56;;;;;;;5.80;2.50;;;;;;;;;;6145882;23;20192;-94
2023/10/04 04:42:05;;;;;;;9.43;2.88;;;;;;;;;;6143816;23;20593;-93
2023/10/04 04:45:11;;;;;;;8.77;3.03;;;;;;;;;;6141302;23;20266;-93
2023/10/04 04:48:23;;;;;;;6.30;2.40;;;;;;;;;;6140421;23;20210;-93
2023/10/04 04:51:31;;;;;;;4.38;2.50;;;;;;;;;;6143141;23;20225;-92
2023/10/04 04:54:36;;;;;;;9.20;3.45;;;;;;;;;;6142150;23;20282;-91
2023/10/04 04:57:41;;;;;;;4.18;2.63;;;;;;;;;;6142552;23;20172;-93
2023/10/04 05:00:55;;;;;;;8.43;2.60;;;;;;;;;;6140231;23;20672;-92
2023/10/04 05:04:06;;;;;;;10.50;2.78;;;;;;;;;;6140095;23;20169;-94
2023/10/04 05:07:12;;;;;;;7.00;3.00;;;;;;;;;;6139803;23;20194;-91
2023/10/04 05:10:18;;;;;;;7.18;2.40;;;;;;;;;;6139437;23;20177;-94
2023/10/04 05:13:24;;;;;;;6.20;2.40;;;;;;;;;;6139365;23;20222;-94
2023/10/04 05:16:30;;;;;;;8.63;2.75;;;;;;;;;;6142347;23;20184;-93
2023/10/04 05:19:38;;;;;;;8.50;2.80;;;;;;;;;;6143108;23;20218;-93
2023/10/04 05:22:44;;;;;;;7.53;2.63;;;;;;;;;;6142116;23;20612;-90
2023/10/04 05:25:52;;;;;;;8.10;2.72;;;;;;;;;;6142634;23;20208;-92
2023/10/04 05:28:58;;;;;;;5.65;2.60;;;;;;;;;;6143023;23;20164;-92
2023/10/04 05:32:04;;;;;;;11.20;2.80;;;;;;;;;;6142837;23;20157;-93
2023/10/04 05:38:47;;;;;;;9.80;3.47;;;;;;;;;;6144805;23;20193;-89
2023/10/04 05:41:54;;;;;;;6.60;3.08;;;;;;;;;;6127079;23;20177;-92
2023/10/04 05:45:02;;;;;;;6.47;2.50;;;;;;;;;;6127178;23;20221;-94
2023/10/04 05:48:08;;;;;;;6.03;2.97;;;;;;;;;;6126751;23;20213;-92
2023/10/04 05:51:16;;;;;;;7.80;3.33;;;;;;;;;;6145425;23;20177;-91
2023/10/04 05:54:24;;;;;;;13.52;3.85;;;;;;;;;;6145455;23;20161;-92
2023/10/04 05:57:30;;;;;;;7.60;2.80;;;;;;;;;;6144462;23;20177;-92
2023/10/04 06:04:13;;;;;;;7.80;2.78;;;;;;;;;;6130772;23;20169;-91
2023/10/04 06:07:19;;;;;;;6.65;2.42;;;;;;;;;;6145632;23;20237;-92
2023/10/04 06:10:26;;;;;;;13.00;3.38;;;;;;;;;;6127220;23;20624;-92
2023/10/04 06:13:32;;;;;;;5.60;2.63;;;;;;;;;;6143042;23;20205;-90
2023/10/04 06:16:37;;;;;;;7.15;2.47;;;;;;;;;;6140732;23;20321;-93
2023/10/04 06:19:43;;;;;;;6.32;2.58;;;;;;;;;;6144958;23;20203;-94
2023/10/04 06:22:49;;;;;;;10.43;2.88;;;;;;;;;;6144108;23;20170;-92
2023/10/04 11:27:56;;;;;;;6.28;2.20;;;;;;;;;;6002215;22;1604666;-94
2023/10/04 11:31:02;;;;;;;4.03;1.98;;;;;;;;;;6044744;23;20221;-94
2023/10/04 11:34:08;;;;;;;11.02;2.65;;;;;;;;;;6031658;23;20207;-95
2023/10/04 11:40:34;;;;;;;3.60;1.85;;;;;;;;;;6031182;23;20191;-95
2023/10/04 11:43:44;;;;;;;6.38;2.97;;;;;;;;;;6029229;23;20266;-92
2023/10/04 11:46:54;;;;;;;5.50;2.13;;;;;;;;;;6030560;23;20180;-95
2023/10/04 11:50:03;;;;;;;3.45;1.90;;;;;;;;;;6028599;23;20265;-92
2023/10/04 11:53:11;;;;;;;5.60;2.00;;;;;;;;;;6031752;23;20201;-92
2023/10/04 11:56:18;;;;;;;3.38;1.60;;;;;;;;;;6030035;23;20243;-92
2023/10/04 11:59:32;;;;;;;5.60;1.70;;;;;;;;;;6029347;23;20225;-93
2023/10/04 12:02:37;;;;;;;6.65;2.15;;;;;;;;;;6028864;23;20225;-93
2023/10/04 12:09:05;;;;;;;7.10;2.03;;;;;;;;;;6029809;23;20256;-90
2023/10/04 12:12:16;;;;;;;6.78;1.98;;;;;;;;;;6031516;23;20176;-93
2023/10/04 12:15:24;;;;;;;5.75;2.10;;;;;;;;;;6031892;23;20176;-94
2023/10/04 12:18:30;;;;;;;5.25;2.22;;;;;;;;;;6032093;23;20240;-94
2023/10/04 12:21:37;;;;;;;6.60;2.10;;;;;;;;;;6031532;23;20263;-91
2023/10/04 12:24:44;;;;;;;5.32;1.92;;;;;;;;;;6028695;23;20172;-93
2023/10/04 12:27:51;;;;;;;6.43;1.88;;;;;;;;;;6027772;23;20241;-91
2023/10/04 12:31:01;;;;;;;5.75;2.15;;;;;;;;;;6028031;23;20180;-93
2023/10/04 12:34:07;;;;;;;6.95;2.05;;;;;;;;;;6028761;23;20180;-93
2023/10/04 12:37:13;;;;;;;8.25;2.40;;;;;;;;;;6028194;23;20186;-92
2023/10/04 12:40:23;;;;;;;6.53;2.30;;;;;;;;;;6028557;23;20176;-92
2023/10/04 12:43:29;;;;;;;6.00;1.83;;;;;;;;;;6028844;23;20242;-92
2023/10/04 12:46:38;;;;;;;3.17;1.60;;;;;;;;;;6046036;23;20173;-93
2023/10/04 12:49:43;;;;;;;8.10;1.98;;;;;;;;;;6030123;23;20220;-93
2023/10/04 12:52:49;;;;;;;5.45;2.17;;;;;;;;;;6030699;23;20189;-96
2023/10/04 12:55:55;;;;;;;3.80;1.70;;;;;;;;;;6029028;23;20221;-92
2023/10/04 12:59:03;;;;;;;3.97;1.70;;;;;;;;;;6029002;23;20248;-91
2023/10/04 13:02:10;;;;;;;4.63;2.10;;;;;;;;;;6027977;23;20176;-95
2023/10/04 13:05:18;;;;;;;4.50;1.92;;;;;;;;;;6030311;23;20155;-95
2023/10/04 13:08:25;;;;;;;6.72;1.70;;;;;;;;;;6029861;23;20200;-94
2023/10/04 13:11:33;;;;;;;4.15;1.85;;;;;;;;;;6028061;23;20199;-92
2023/10/04 13:14:38;;;;;;;6.22;1.90;;;;;;;;;;6027190;23;20155;-93
2023/10/04 13:17:44;;;;;;;5.30;2.20;;;;;;;;;;6028590;23;20172;-92
2023/10/04 13:20:58;;;;;;;8.23;2.40;;;;;;;;;;6029298;23;20169;-96
2023/10/04 13:24:04;;;;;;;7.07;2.10;;;;;;;;;;6028162;23;20212;-93
2023/10/04 13:27:10;;;;;;;7.00;1.98;;;;;;;;;;6026546;23;20208;-92
2023/10/04 13:30:15;;;;;;;5.10;2.15;;;;;;;;;;6028134;23;20221;-92
2023/10/04 13:33:38;;;;;;;3.58;1.65;;;;;;;;;;6029213;23;20184;-96
2023/10/04 13:36:46;;;;;;;6.28;1.98;;;;;;;;;;6027145;23;20175;-94
2023/10/04 13:39:57;;;;;;;8.35;2.20;;;;;;;;;;6027803;23;20171;-93
2023/10/04 13:43:07;;;;;;;7.90;2.20;;;;;;;;;;6027938;23;20155;-94
2023/10/04 13:46:13;;;;;;;4.50;2.10;;;;;;;;;;6028119;23;20156;-94
2023/10/04 13:49:24;;;;;;;6.43;2.58;;;;;;;;;;6027063;23;20204;-93
2023/10/04 13:52:38;;;;;;;5.32;2.00;;;;;;;;;;6027546;23;20267;-92
2023/10/04 13:55:44;;;;;;;4.32;2.00;;;;;;;;;;6027949;23;20171;-90
2023/10/04 13:58:53;;;;;;;4.93;1.83;;;;;;;;;;6028946;23;20172;-94
2023/10/04 14:02:03;;;;;;;3.60;1.70;;;;;;;;;;6029356;23;20176;-94
2023/10/04 14:05:14;;;;;;;6.13;1.92;;;;;;;;;;6030324;23;20176;-93
2023/10/04 14:08:35;;;;;;;6.55;2.40;;;;;;;;;;6026217;23;20224;-95
2023/10/04 14:11:43;;;;;;;5.63;2.33;;;;;;;;;;6026014;23;20259;-93
2023/10/04 14:14:51;;;;;;;12.27;5.20;;;;;;;;;;6026967;23;20168;-92
2023/10/04 14:17:57;;;;;;;7.05;2.33;;;;;;;;;;6029225;23;20196;-93
2023/10/04 14:21:04;;;;;;;4.60;1.90;;;;;;;;;;6027592;23;20186;-90
2023/10/04 14:24:10;;;;;;;4.75;1.98;;;;;;;;;;6028429;23;20187;-92
2023/10/04 14:31:07;;;;;;;6.75;2.20;;;;;;;;;;6027484;23;20159;-91
2023/10/04 14:34:13;;;;;;;3.75;1.50;;;;;;;;;;6028752;23;20171;-92
2023/10/04 14:37:20;;;;;;;3.38;1.83;;;;;;;;;;6029266;23;20179;-91
2023/10/04 14:40:26;;;;;;;5.10;1.92;;;;;;;;;;6030241;23;20175;-92
2023/10/04 14:43:33;;;;;;;5.63;2.13;;;;;;;;;;6029290;23;20176;-95
2023/10/04 14:46:40;;;;;;;5.35;1.85;;;;;;;;;;6030238;23;20177;-93
2023/10/04 14:49:47;;;;;;;4.13;1.65;;;;;;;;;;6028929;23;20176;-94
2023/10/04 14:52:53;;;;;;;3.45;1.70;;;;;;;;;;6028458;23;20176;-94
2023/10/04 14:59:34;;;;;;;4.85;1.65;;;;;;;;;;6029866;23;20207;-92
2023/10/04 15:02:49;;;;;;;3.90;1.98;;;;;;;;;;6033540;23;20232;-95
2023/10/04 15:05:56;;;;;;;6.13;2.33;;;;;;;;;;6032007;23;20180;-93
2023/10/04 15:09:02;;;;;;;3.75;1.90;;;;;;;;;;6030456;23;20180;-91
2023/10/04 15:12:09;;;;;;;5.05;1.80;;;;;;;;;;6032941;23;20221;-93
2023/10/04 15:15:15;;;;;;;3.63;1.55;;;;;;;;;;6033073;23;20212;-93
2023/10/04 15:21:48;;;;;;;4.38;2.03;;;;;;;;;;6028980;23;20167;-89
2023/10/04 15:24:54;;;;;;;5.03;1.73;;;;;;;;;;6029169;23;20217;-93
2023/10/04 15:28:07;;;;;;;4.50;1.77;;;;;;;;;;6029327;23;20191;-92
2023/10/04 15:31:17;;;;;;;4.20;1.77;;;;;;;;;;6029497;23;20225;-92
2023/10/04 15:34:24;;;;;;;3.85;1.80;;;;;;;;;;6028504;23;20176;-93
2023/10/04 15:37:31;;;;;;;6.35;1.90;;;;;;;;;;6029963;23;20179;-91
2023/10/04 15:43:59;;;;;;;4.93;1.77;;;;;;;;;;6031052;23;20193;-94
2023/10/04 15:47:05;;;;;;;6.18;1.85;;;;;;;;;;6030930;23;20197;-92
2023/10/04 15:50:26;;;;;;;5.15;1.95;;;;;;;;;;6028625;23;20175;-95
2023/10/04 15:53:37;;;;;;;5.00;1.90;;;;;;;;;;6030342;23;20186;-91
2023/10/04 15:56:43;;;;;;;2.97;1.52;;;;;;;;;;6029838;23;20264;-95
2023/10/04 15:59:50;;;;;;;4.20;1.83;;;;;;;;;;6028954;23;20195;-95
2023/10/04 16:02:57;;;;;;;10.18;3.40;;;;;;;;;;6029097;23;20175;-94
2023/10/04 16:06:03;;;;;;;7.50;3.35;;;;;;;;;;6030829;23;20205;-91
2023/10/04 16:09:11;;;;;;;8.52;3.70;;;;;;;;;;6030768;23;20160;-91
2023/10/04 16:12:23;;;;;;;10.40;3.20;;;;;;;;;;6029749;23;20643;-95
2023/10/04 16:15:29;;;;;;;8.10;3.05;;;;;;;;;;6030720;23;20260;-92
2023/10/04 16:18:35;;;;;;;6.55;2.20;;;;;;;;;;6031194;23;20203;-90
2023/10/04 16:21:43;;;;;;;6.78;2.35;;;;;;;;;;6032360;23;20172;-91
2023/10/04 16:24:50;;;;;;;6.80;1.92;;;;;;;;;;6033178;23;20204;-92
2023/10/04 16:31:15;;;;;;;32.85;7.82;;;;;;;;;;6030108;23;20180;-90
2023/10/04 16:34:21;;;;;;;16.02;5.70;;;;;;;;;;6030391;23;20175;-94
2023/10/04 16:37:35;;;;;;;11.90;3.58;;;;;;;;;;6029729;23;20172;-92
2023/10/04 16:40:43;;;;;;;7.78;1.95;;;;;;;;;;6029370;23;20160;-92
2023/10/04 16:43:50;;;;;;;4.15;2.05;;;;;;;;;;6027075;23;20168;-93
2023/10/04 16:46:57;;;;;;;9.82;2.42;;;;;;;;;;6027156;23;20193;-95
2023/10/04 16:50:04;;;;;;;14.27;6.88;;;;;;;;;;6028717;23;20164;-92
2023/10/04 16:53:10;;;;;;;6.28;2.10;;;;;;;;;;6027662;23;20164;-94
2023/10/04 16:56:17;;;;;;;9.27;2.53;;;;;;;;;;6028870;23;20193;-93
2023/10/04 16:59:24;;;;;;;5.43;2.45;;;;;;;;;;6028937;23;20246;-93
2023/10/04 17:02:30;;;;;;;6.35;2.13;;;;;;;;;;6030151;23;20183;-94
2023/10/04 17:05:54;;;;;;;6.03;2.55;;;;;;;;;;6030901;23;20188;-93
2023/10/04 17:09:03;;;;;;;10.43;2.60;;;;;;;;;;6031953;23;20201;-92
2023/10/04 17:12:11;;;;;;;6.10;2.60;;;;;;;;;;6030491;23;20190;-92
2023/10/04 17:15:21;;;;;;;6.57;2.67;;;;;;;;;;6031364;23;20510;-92
2023/10/04 17:18:27;;;;;;;5.60;2.40;;;;;;;;;;6030938;23;20492;-92
2023/10/04 17:21:40;;;;;;;4.65;2.30;;;;;;;;;;6031829;23;20179;-91
2023/10/04 17:24:47;;;;;;;8.48;2.47;;;;;;;;;;6048584;23;20217;-91
2023/10/04 17:27:54;;;;;;;12.10;4.85;;;;;;;;;;6030199;23;20187;-90
2023/10/04 17:31:04;;;;;;;11.15;4.60;;;;;;;;;;6031688;23;20238;-91
2023/10/04 17:34:11;;;;;;;12.70;4.75;;;;;;;;;;6032022;23;20172;-91
2023/10/04 17:37:21;;;;;;;16.00;7.32;;;;;;;;;;6031880;23;20171;-90
2023/10/04 17:40:28;;;;;;;10.95;4.05;;;;;;;;;;6032304;23;20704;-93
2023/10/04 17:43:36;;;;;;;7.90;3.42;;;;;;;;;;6029695;23;20212;-93
2023/10/04 17:46:42;;;;;;;17.52;6.13;;;;;;;;;;6027858;23;20849;-91
2023/10/04 17:49:52;;;;;;;6.40;2.85;;;;;;;;;;6029516;23;20229;-92
2023/10/04 17:52:58;;;;;;;13.02;3.35;;;;;;;;;;6029462;23;20217;-90
2023/10/04 17:56:08;;;;;;;12.27;7.07;;;;;;;;;;6028972;23;20228;-91
2023/10/04 18:02:42;;;;;;;7.88;3.70;;;;;;;;;;6032331;23;20206;-92
2023/10/04 18:05:48;;;;;;;9.00;3.70;;;;;;;;;;6029293;23;20194;-90
2023/10/04 18:08:57;;;;;;;7.80;3.97;;;;;;;;;;6032104;23;20216;-90
2023/10/04 18:12:07;;;;;;;11.45;5.40;;;;;;;;;;6032820;23;20167;-91
2023/10/04 18:15:23;;;;;;;7.53;4.03;;;;;;;;;;6048320;23;20172;-89
2023/10/04 18:18:30;;;;;;;7.20;3.25;;;;;;;;;;6029830;23;20213;-90
2023/10/04 18:21:36;;;;;;;8.40;2.80;;;;;;;;;;6030680;23;20156;-90
2023/10/04 18:24:43;;;;;;;10.00;3.20;;;;;;;;;;6029595;23;20172;-89
2023/10/04 18:27:50;;;;;;;8.43;2.97;;;;;;;;;;6030093;23;20195;-90
2023/10/04 18:31:01;;;;;;;7.35;3.00;;;;;;;;;;6031147;23;20183;-93
2023/10/04 20:31:30;;;;;;;16.08;5.22;;;;;;;;;;6020218;23;20207;-92
2023/10/04 20:34:35;;;;;;;15.93;5.63;;;;;;;;;;6067298;23;20174;-94
2023/10/04 20:37:41;;;;;;;17.08;8.02;;;;;;;;;;6085563;23;20178;-91
2023/10/04 20:40:47;;;;;;;14.98;5.65;;;;;;;;;;6086481;23;20214;-93
2023/10/04 20:43:53;;;;;;;11.80;4.88;;;;;;;;;;6087357;23;20175;-92
2023/10/04 20:47:00;;;;;;;13.80;6.18;;;;;;;;;;6086734;23;20187;-92
2023/10/04 20:50:06;;;;;;;15.23;5.80;;;;;;;;;;6086919;23;20192;-91
2023/10/04 20:53:13;;;;;;;13.38;5.18;;;;;;;;;;6068615;23;20170;-95
2023/10/04 20:56:19;;;;;;;17.48;6.10;;;;;;;;;;6086766;23;20662;-92
2023/10/04 20:59:24;;;;;;;12.98;5.35;;;;;;;;;;6086289;23;20190;-92
2023/10/04 21:02:31;;;;;;;12.20;4.90;;;;;;;;;;6086163;23;20175;-91
2023/10/04 21:05:38;;;;;;;11.52;4.30;;;;;;;;;;6086618;23;20216;-93
2023/10/04 21:08:43;;;;;;;12.43;4.57;;;;;;;;;;6086455;23;20170;-93
2023/10/04 21:11:49;;;;;;;11.55;4.50;;;;;;;;;;6086937;23;20187;-92
2023/10/04 21:14:54;;;;;;;11.52;4.47;;;;;;;;;;6085847;23;20195;-93
2023/10/04 21:18:02;;;;;;;10.43;4.82;;;;;;;;;;6069088;23;20213;-93
2023/10/04 21:21:08;;;;;;;14.45;5.97;;;;;;;;;;6086079;23;20177;-89
2023/10/04 21:24:16;;;;;;;7.97;4.40;;;;;;;;;;6085617;23;20175;-92
2023/10/04 21:27:23;;;;;;;10.32;4.20;;;;;;;;;;6085160;23;20179;-92
2023/10/04 21:30:38;;;;;;;8.50;3.50;;;;;;;;;;6085196;23;20186;-89
2023/10/04 21:33:46;;;;;;;7.93;3.58;;;;;;;;;;6084308;23;20170;-93
2023/10/04 21:36:52;;;;;;;5.63;2.85;;;;;;;;;;6085341;23;20195;-93
2023/10/04 21:39:58;;;;;;;10.75;4.60;;;;;;;;;;6084797;23;20597;-93
2023/10/04 21:43:03;;;;;;;12.07;4.78;;;;;;;;;;6085713;23;20219;-93
2023/10/04 21:46:09;;;;;;;8.43;3.63;;;;;;;;;;6087076;23;20163;-92
2023/10/04 21:49:18;;;;;;;7.90;3.45;;;;;;;;;;6070640;23;20170;-90
2023/10/04 21:52:26;;;;;;;8.40;3.33;;;;;;;;;;6087848;23;20179;-88
2023/10/04 21:55:37;;;;;;;8.52;3.30;;;;;;;;;;6072153;23;20180;-95
2023/10/04 21:58:44;;;;;;;6.85;3.63;;;;;;;;;;6088410;23;20153;-92
2023/10/04 22:01:53;;;;;;;10.07;3.17;;;;;;;;;;6086312;23;20200;-93
2023/10/04 22:05:02;;;;;;;7.20;3.20;;;;;;;;;;6088297;23;20195;-93
2023/10/04 22:08:12;;;;;;;5.72;3.20;;;;;;;;;;6069951;23;20179;-94
2023/10/04 22:11:18;;;;;;;6.55;2.85;;;;;;;;;;6084440;23;20223;-91
2023/10/04 22:14:23;;;;;;;6.43;2.80;;;;;;;;;;6085458;23;20219;-92
2023/10/04 22:17:33;;;;;;;4.90;2.80;;;;;;;;;;6085783;23;20178;-92
2023/10/04 22:20:44;;;;;;;6.75;3.08;;;;;;;;;;6069260;23;20197;-93
2023/10/04 22:23:50;;;;;;;8.85;3.25;;;;;;;;;;6085158;23;20175;-91
2023/10/04 22:26:56;;;;;;;5.63;2.92;;;;;;;;;;6086033;23;20203;-94
2023/10/04 22:30:03;;;;;;;7.00;3.90;;;;;;;;;;6085337;23;20254;-95
2023/10/04 22:33:09;;;;;;;6.28;2.80;;;;;;;;;;6084083;23;20175;-93
2023/10/04 22:36:18;;;;;;;6.28;3.22;;;;;;;;;;6085779;23;20219;-90
2023/10/04 22:39:24;;;;;;;4.80;3.15;;;;;;;;;;6085562;23;20170;-91
2023/10/04 22:42:30;;;;;;;9.45;3.67;;;;;;;;;;6084076;23;20211;-93
2023/10/04 22:45:36;;;;;;;6.38;3.40;;;;;;;;;;6084948;23;20179;-91
2023/10/04 22:48:42;;;;;;;8.98;3.45;;;;;;;;;;6084211;23;20263;-90
2023/10/04 22:51:49;;;;;;;5.95;3.13;;;;;;;;;;6085230;23;20200;-92
2023/10/04 22:54:55;;;;;;;6.90;3.53;;;;;;;;;;6067248;23;20219;-90
2023/10/04 22:58:01;;;;;;;9.50;3.33;;;;;;;;;;6085230;23;20175;-94
2023/10/04 23:01:12;;;;;;;6.70;3.10;;;;;;;;;;6083811;23;20217;-91
2023/10/04 23:04:17;;;;;;;6.07;3.10;;;;;;;;;;6084110;23;20548;-90
2023/10/04 23:07:24;;;;;;;8.40;3.50;;;;;;;;;;6083947;23;20185;-92
2023/10/04 23:10:32;;;;;;;6.22;3.33;;;;;;;;;;6085836;23;20176;-92
2023/10/04 23:13:43;;;;;;;6.97;3.40;;;;;;;;;;6086587;23;20163;-94
2023/10/04 23:16:57;;;;;;;8.23;3.50;;;;;;;;;;6087302;23;20219;-94
2023/10/04 23:20:30;;;;;;;5.95;3.17;;;;;;;;;;6069825;23;20219;-93
2023/10/04 23:23:33;;;;;;;6.95;3.33;;;;;;;;;;6070236;23;20219;-93
2023/10/04 23:26:38;;;;;;;7.65;3.40;;;;;;;;;;6070870;23;20207;-92
2023/10/04 23:29:45;;;;;;;10.30;3.25;;;;;;;;;;6089413;23;20223;-94
2023/10/04 23:32:50;;;;;;;5.85;3.30;;;;;;;;;;6068497;23;20323;-93
2023/10/04 23:35:58;;;;;;;6.18;3.05;;;;;;;;;;6086041;23;20167;-93
2023/10/04 23:39:07;;;;;;;5.85;2.92;;;;;;;;;;6085089;23;20562;-90
2023/10/04 23:42:13;;;;;;;6.30;3.08;;;;;;;;;;6069224;23;20174;-93
2023/10/04 23:45:19;;;;;;;11.10;3.40;;;;;;;;;;6086455;23;20511;-93
2023/10/04 23:48:25;;;;;;;8.68;3.70;;;;;;;;;;6084475;23;20171;-92
2023/10/04 23:51:30;;;;;;;8.48;3.25;;;;;;;;;;6084689;23;20174;-92
2023/10/04 23:54:38;;;;;;;5.97;3.20;;;;;;;;;;6084571;23;20482;-94
2023/10/04 23:57:45;;;;;;;8.80;3.38;;;;;;;;;;6086173;23;20228;-92
